Tabriz, Iran
Current Conditions -  °F | °C
As of 6:20 PM on Saturday 22 Nov 2014 (Local Time) from OITT Reporting Station
Thunderstorm Thunderstorm  
Wind Chill: 43°   Ceiling: 9000
Heat Index: 43°   Visibility: 2.5mi
Dew Point: 41°   Wind: 2mph
Humidity: 93%   Direction: NA
Pressure: 29.8"   Gusts: NA
Location:  38.08°N, 46.3°E
Report Text: OITT 221420Z VRB02KT 4000 TS SCT035 SCT040CB BKN090 06/05 Q1009 A2982
Loading
Personal Weather Stations






























Interactive Weather Map New forecast layout! Learn more

10-Day Weather Forecast

Advertisements
Track Severe Weather on mobile